sensor_id;sensor_type;location;lat;lon;timestamp;P1;durP1;ratioP1;P2;durP2;ratioP2
8435;SDS011;4255;48.730;9.156;2023-11-22T00:00:09;22.83;;;11.53;;
8435;SDS011;4255;48.730;9.156;2023-11-22T00:02:36;20.88;;;13.20;;
8435;SDS011;4255;48.730;9.156;2023-11-22T00:05:02;18.95;;;11.30;;
8435;SDS011;4255;48.730;9.156;2023-11-22T00:07:28;21.05;;;12.05;;
8435;SDS011;4255;48.730;9.156;2023-11-22T00:09:54;24.20;;;11.77;;
8435;SDS011;4255;48.730;9.156;2023-11-22T00:12:20;20.48;;;11.65;;
8435;SDS011;4255;48.730;9.156;2023-11-22T00:14:47;16.92;;;10.60;;
8435;SDS011;4255;48.730;9.156;2023-11-22T00:17:13;16.50;;;10.93;;
8435;SDS011;4255;48.730;9.156;2023-11-22T00:19:39;13.63;;;8.60;;
8435;SDS011;4255;48.730;9.156;2023-11-22T00:22:05;8.30;;;6.17;;
8435;SDS011;4255;48.730;9.156;2023-11-22T00:24:38;10.00;;;7.20;;
8435;SDS011;4255;48.730;9.156;2023-11-22T00:27:05;8.00;;;6.50;;
8435;SDS011;4255;48.730;9.156;2023-11-22T00:29:31;6.68;;;5.72;;
8435;SDS011;4255;48.730;9.156;2023-11-22T00:31:57;9.37;;;6.73;;
8435;SDS011;4255;48.730;9.156;2023-11-22T00:34:23;9.70;;;8.00;;
8435;SDS011;4255;48.730;9.156;2023-11-22T00:36:49;12.53;;;8.10;;
8435;SDS011;4255;48.730;9.156;2023-11-22T00:39:16;9.43;;;7.20;;
8435;SDS011;4255;48.730;9.156;2023-11-22T00:41:41;9.67;;;7.20;;
8435;SDS011;4255;48.730;9.156;2023-11-22T00:44:07;8.50;;;6.30;;
8435;SDS011;4255;48.730;9.156;2023-11-22T00:46:33;8.50;;;7.00;;
8435;SDS011;4255;48.730;9.156;2023-11-22T00:48:58;12.23;;;8.90;;
8435;SDS011;4255;48.730;9.156;2023-11-22T00:51:24;15.70;;;9.93;;
8435;SDS011;4255;48.730;9.156;2023-11-22T00:53:49;10.70;;;8.30;;
8435;SDS011;4255;48.730;9.156;2023-11-22T00:56:16;15.52;;;10.23;;
8435;SDS011;4255;48.730;9.156;2023-11-22T00:58:41;11.77;;;7.67;;
8435;SDS011;4255;48.730;9.156;2023-11-22T01:01:07;12.32;;;7.95;;
8435;SDS011;4255;48.730;9.156;2023-11-22T01:03:33;11.00;;;9.00;;
8435;SDS011;4255;48.730;9.156;2023-11-22T01:06:00;14.90;;;10.35;;
8435;SDS011;4255;48.730;9.156;2023-11-22T01:08:25;12.30;;;9.30;;
8435;SDS011;4255;48.730;9.156;2023-11-22T01:10:51;11.70;;;7.73;;
8435;SDS011;4255;48.730;9.156;2023-11-22T01:13:16;12.83;;;8.73;;
8435;SDS011;4255;48.730;9.156;2023-11-22T01:15:43;13.00;;;9.23;;
8435;SDS011;4255;48.730;9.156;2023-11-22T01:18:09;13.50;;;9.68;;
8435;SDS011;4255;48.730;9.156;2023-11-22T01:20:35;16.53;;;9.50;;
8435;SDS011;4255;48.730;9.156;2023-11-22T01:23:01;11.57;;;9.40;;
8435;SDS011;4255;48.730;9.156;2023-11-22T01:25:26;14.47;;;9.30;;
8435;SDS011;4255;48.730;9.156;2023-11-22T01:27:53;14.27;;;9.45;;
8435;SDS011;4255;48.730;9.156;2023-11-22T01:30:19;17.23;;;10.87;;
8435;SDS011;4255;48.730;9.156;2023-11-22T01:32:45;14.77;;;9.05;;
8435;SDS011;4255;48.730;9.156;2023-11-22T01:35:10;13.60;;;10.60;;
8435;SDS011;4255;48.730;9.156;2023-11-22T01:37:36;19.33;;;8.80;;
8435;SDS011;4255;48.730;9.156;2023-11-22T01:40:02;14.00;;;10.47;;
8435;SDS011;4255;48.730;9.156;2023-11-22T01:42:29;12.27;;;8.25;;
8435;SDS011;4255;48.730;9.156;2023-11-22T01:44:54;11.20;;;7.70;;
8435;SDS011;4255;48.730;9.156;2023-11-22T01:47:20;13.13;;;9.23;;
8435;SDS011;4255;48.730;9.156;2023-11-22T01:49:46;11.57;;;9.15;;
8435;SDS011;4255;48.730;9.156;2023-11-22T01:52:13;11.63;;;7.43;;
8435;SDS011;4255;48.730;9.156;2023-11-22T01:54:39;12.88;;;7.85;;
8435;SDS011;4255;48.730;9.156;2023-11-22T01:57:06;13.23;;;8.93;;
8435;SDS011;4255;48.730;9.156;2023-11-22T01:59:34;14.20;;;9.15;;
8435;SDS011;4255;48.730;9.156;2023-11-22T02:02:00;13.85;;;8.85;;
8435;SDS011;4255;48.730;9.156;2023-11-22T02:04:26;13.35;;;8.75;;
8435;SDS011;4255;48.730;9.156;2023-11-22T02:06:52;11.52;;;6.88;;
8435;SDS011;4255;48.730;9.156;2023-11-22T02:09:18;11.83;;;7.47;;
8435;SDS011;4255;48.730;9.156;2023-11-22T02:11:44;10.83;;;7.70;;
8435;SDS011;4255;48.730;9.156;2023-11-22T02:14:14;11.55;;;8.18;;
8435;SDS011;4255;48.730;9.156;2023-11-22T02:16:40;8.02;;;6.50;;
8435;SDS011;4255;48.730;9.156;2023-11-22T02:19:06;11.52;;;6.80;;
8435;SDS011;4255;48.730;9.156;2023-11-22T02:21:38;10.77;;;7.40;;
8435;SDS011;4255;48.730;9.156;2023-11-22T02:24:04;8.37;;;6.93;;
8435;SDS011;4255;48.730;9.156;2023-11-22T02:26:30;9.25;;;6.72;;
8435;SDS011;4255;48.730;9.156;2023-11-22T02:28:56;12.47;;;7.67;;
8435;SDS011;4255;48.730;9.156;2023-11-22T02:31:21;10.30;;;7.80;;
8435;SDS011;4255;48.730;9.156;2023-11-22T02:33:49;9.80;;;7.80;;
8435;SDS011;4255;48.730;9.156;2023-11-22T02:36:14;9.30;;;6.90;;
8435;SDS011;4255;48.730;9.156;2023-11-22T02:38:40;12.60;;;8.30;;
8435;SDS011;4255;48.730;9.156;2023-11-22T02:41:06;9.93;;;8.10;;
8435;SDS011;4255;48.730;9.156;2023-11-22T02:43:34;10.18;;;6.85;;
8435;SDS011;4255;48.730;9.156;2023-11-22T02:46:00;11.20;;;8.00;;
8435;SDS011;4255;48.730;9.156;2023-11-22T02:48:26;7.53;;;6.57;;
8435;SDS011;4255;48.730;9.156;2023-11-22T02:50:51;8.37;;;6.30;;
8435;SDS011;4255;48.730;9.156;2023-11-22T02:53:19;9.60;;;7.20;;
8435;SDS011;4255;48.730;9.156;2023-11-22T02:55:44;11.80;;;7.03;;
8435;SDS011;4255;48.730;9.156;2023-11-22T02:58:10;9.83;;;7.10;;
8435;SDS011;4255;48.730;9.156;2023-11-22T03:00:37;10.82;;;6.32;;
8435;SDS011;4255;48.730;9.156;2023-11-22T03:03:06;7.88;;;6.47;;
8435;SDS011;4255;48.730;9.156;2023-11-22T03:05:35;8.85;;;6.55;;
8435;SDS011;4255;48.730;9.156;2023-11-22T03:08:02;11.45;;;7.13;;
8435;SDS011;4255;48.730;9.156;2023-11-22T03:10:28;8.13;;;5.40;;
8435;SDS011;4255;48.730;9.156;2023-11-22T03:12:55;8.75;;;6.97;;
8435;SDS011;4255;48.730;9.156;2023-11-22T03:15:21;9.47;;;6.87;;
8435;SDS011;4255;48.730;9.156;2023-11-22T03:17:46;7.77;;;6.80;;
8435;SDS011;4255;48.730;9.156;2023-11-22T03:20:13;9.93;;;6.15;;
8435;SDS011;4255;48.730;9.156;2023-11-22T03:22:40;12.63;;;7.22;;
8435;SDS011;4255;48.730;9.156;2023-11-22T03:25:09;7.47;;;6.30;;
8435;SDS011;4255;48.730;9.156;2023-11-22T03:27:35;9.65;;;7.15;;
8435;SDS011;4255;48.730;9.156;2023-11-22T03:30:01;8.63;;;6.18;;
8435;SDS011;4255;48.730;9.156;2023-11-22T03:32:27;7.88;;;7.15;;
8435;SDS011;4255;48.730;9.156;2023-11-22T03:34:54;9.32;;;6.95;;
8435;SDS011;4255;48.730;9.156;2023-11-22T03:37:20;11.33;;;7.87;;
8435;SDS011;4255;48.730;9.156;2023-11-22T03:39:45;8.13;;;6.73;;
8435;SDS011;4255;48.730;9.156;2023-11-22T03:42:14;8.98;;;6.30;;
8435;SDS011;4255;48.730;9.156;2023-11-22T03:44:41;10.15;;;7.18;;
8435;SDS011;4255;48.730;9.156;2023-11-22T03:47:07;10.10;;;6.60;;
8435;SDS011;4255;48.730;9.156;2023-11-22T03:49:32;10.20;;;6.50;;
8435;SDS011;4255;48.730;9.156;2023-11-22T03:51:58;8.77;;;6.27;;
8435;SDS011;4255;48.730;9.156;2023-11-22T03:54:23;12.43;;;7.47;;
8435;SDS011;4255;48.730;9.156;2023-11-22T03:56:49;10.20;;;8.00;;
8435;SDS011;4255;48.730;9.156;2023-11-22T03:59:15;8.45;;;7.13;;
8435;SDS011;4255;48.730;9.156;2023-11-22T04:01:41;9.33;;;7.83;;
8435;SDS011;4255;48.730;9.156;2023-11-22T04:04:06;9.17;;;6.97;;
8435;SDS011;4255;48.730;9.156;2023-11-22T04:06:34;10.05;;;7.25;;
8435;SDS011;4255;48.730;9.156;2023-11-22T04:09:00;20.70;;;10.10;;
8435;SDS011;4255;48.730;9.156;2023-11-22T04:11:26;10.43;;;7.00;;
8435;SDS011;4255;48.730;9.156;2023-11-22T04:13:54;9.70;;;6.88;;
8435;SDS011;4255;48.730;9.156;2023-11-22T04:16:20;9.35;;;7.40;;
8435;SDS011;4255;48.730;9.156;2023-11-22T04:18:46;8.63;;;6.70;;
8435;SDS011;4255;48.730;9.156;2023-11-22T04:21:11;8.77;;;7.80;;
8435;SDS011;4255;48.730;9.156;2023-11-22T04:23:37;7.60;;;6.10;;
8435;SDS011;4255;48.730;9.156;2023-11-22T04:26:02;10.50;;;7.37;;
8435;SDS011;4255;48.730;9.156;2023-11-22T04:28:28;11.03;;;8.20;;
8435;SDS011;4255;48.730;9.156;2023-11-22T04:30:55;12.13;;;8.52;;
8435;SDS011;4255;48.730;9.156;2023-11-22T04:33:21;10.63;;;7.93;;
8435;SDS011;4255;48.730;9.156;2023-11-22T04:35:48;10.93;;;8.43;;
8435;SDS011;4255;48.730;9.156;2023-11-22T04:38:13;15.93;;;7.93;;
8435;SDS011;4255;48.730;9.156;2023-11-22T04:40:39;10.13;;;7.30;;
8435;SDS011;4255;48.730;9.156;2023-11-22T04:43:05;12.07;;;9.07;;
8435;SDS011;4255;48.730;9.156;2023-11-22T04:45:30;12.07;;;8.23;;
8435;SDS011;4255;48.730;9.156;2023-11-22T04:47:56;10.27;;;8.70;;
8435;SDS011;4255;48.730;9.156;2023-11-22T04:50:25;10.40;;;9.02;;
8435;SDS011;4255;48.730;9.156;2023-11-22T04:52:50;14.87;;;8.20;;
8435;SDS011;4255;48.730;9.156;2023-11-22T04:55:16;9.80;;;7.40;;
8435;SDS011;4255;48.730;9.156;2023-11-22T04:57:42;13.10;;;8.80;;
8435;SDS011;4255;48.730;9.156;2023-11-22T05:00:07;9.43;;;6.90;;
8435;SDS011;4255;48.730;9.156;2023-11-22T05:02:34;12.68;;;8.98;;
8435;SDS011;4255;48.730;9.156;2023-11-22T05:05:00;11.57;;;8.30;;
8435;SDS011;4255;48.730;9.156;2023-11-22T05:07:26;11.80;;;8.57;;
8435;SDS011;4255;48.730;9.156;2023-11-22T05:09:51;9.07;;;6.90;;
8435;SDS011;4255;48.730;9.156;2023-11-22T05:12:17;14.33;;;8.37;;
8435;SDS011;4255;48.730;9.156;2023-11-22T05:14:42;10.37;;;7.40;;
8435;SDS011;4255;48.730;9.156;2023-11-22T05:17:08;11.50;;;8.60;;
8435;SDS011;4255;48.730;9.156;2023-11-22T05:19:34;9.20;;;7.80;;
8435;SDS011;4255;48.730;9.156;2023-11-22T05:22:00;10.10;;;7.03;;
8435;SDS011;4255;48.730;9.156;2023-11-22T05:24:25;8.40;;;7.10;;
8435;SDS011;4255;48.730;9.156;2023-11-22T05:26:51;11.68;;;8.40;;
8435;SDS011;4255;48.730;9.156;2023-11-22T05:29:17;7.83;;;6.73;;
8435;SDS011;4255;48.730;9.156;2023-11-22T05:31:43;8.47;;;6.70;;
8435;SDS011;4255;48.730;9.156;2023-11-22T05:34:08;6.37;;;5.77;;
8435;SDS011;4255;48.730;9.156;2023-11-22T05:36:34;8.67;;;6.87;;
8435;SDS011;4255;48.730;9.156;2023-11-22T05:38:59;9.33;;;7.67;;
8435;SDS011;4255;48.730;9.156;2023-11-22T05:41:25;7.13;;;6.43;;
8435;SDS011;4255;48.730;9.156;2023-11-22T05:43:52;8.02;;;6.30;;
8435;SDS011;4255;48.730;9.156;2023-11-22T05:46:19;9.95;;;7.50;;
8435;SDS011;4255;48.730;9.156;2023-11-22T05:48:47;11.65;;;7.88;;
8435;SDS011;4255;48.730;9.156;2023-11-22T05:51:15;13.50;;;7.95;;
8435;SDS011;4255;48.730;9.156;2023-11-22T05:53:40;8.82;;;7.28;;
8435;SDS011;4255;48.730;9.156;2023-11-22T05:56:06;7.70;;;6.60;;
8435;SDS011;4255;48.730;9.156;2023-11-22T05:58:33;10.30;;;7.28;;
8435;SDS011;4255;48.730;9.156;2023-11-22T06:01:03;10.73;;;6.95;;
8435;SDS011;4255;48.730;9.156;2023-11-22T06:03:32;14.55;;;8.50;;
8435;SDS011;4255;48.730;9.156;2023-11-22T06:06:00;7.88;;;7.05;;
8435;SDS011;4255;48.730;9.156;2023-11-22T06:08:25;9.57;;;7.73;;
8435;SDS011;4255;48.730;9.156;2023-11-22T06:10:51;9.93;;;7.00;;
8435;SDS011;4255;48.730;9.156;2023-11-22T06:13:18;8.93;;;5.68;;
8435;SDS011;4255;48.730;9.156;2023-11-22T06:15:44;7.45;;;5.93;;
8435;SDS011;4255;48.730;9.156;2023-11-22T06:18:10;8.23;;;7.40;;
8435;SDS011;4255;48.730;9.156;2023-11-22T06:20:38;6.22;;;5.63;;
8435;SDS011;4255;48.730;9.156;2023-11-22T06:23:04;11.47;;;7.03;;
8435;SDS011;4255;48.730;9.156;2023-11-22T06:25:30;8.23;;;7.40;;
8435;SDS011;4255;48.730;9.156;2023-11-22T06:27:56;9.50;;;6.70;;
8435;SDS011;4255;48.730;9.156;2023-11-22T06:30:21;11.37;;;6.60;;
8435;SDS011;4255;48.730;9.156;2023-11-22T06:32:48;9.52;;;6.28;;
8435;SDS011;4255;48.730;9.156;2023-11-22T06:35:14;13.17;;;8.10;;
8435;SDS011;4255;48.730;9.156;2023-11-22T06:37:40;11.43;;;8.40;;
8435;SDS011;4255;48.730;9.156;2023-11-22T06:40:06;8.68;;;7.07;;
8435;SDS011;4255;48.730;9.156;2023-11-22T06:42:33;13.02;;;7.47;;
8435;SDS011;4255;48.730;9.156;2023-11-22T06:44:59;9.97;;;7.17;;
8435;SDS011;4255;48.730;9.156;2023-11-22T06:47:26;9.65;;;7.53;;
8435;SDS011;4255;48.730;9.156;2023-11-22T06:49:54;8.27;;;7.07;;
8435;SDS011;4255;48.730;9.156;2023-11-22T06:52:20;8.00;;;5.63;;
8435;SDS011;4255;48.730;9.156;2023-11-22T06:54:46;8.57;;;7.00;;
8435;SDS011;4255;48.730;9.156;2023-11-22T06:57:11;8.10;;;6.40;;
8435;SDS011;4255;48.730;9.156;2023-11-22T06:59:37;9.10;;;6.40;;
8435;SDS011;4255;48.730;9.156;2023-11-22T07:02:03;9.67;;;7.73;;
8435;SDS011;4255;48.730;9.156;2023-11-22T07:04:28;7.07;;;6.03;;
8435;SDS011;4255;48.730;9.156;2023-11-22T07:06:54;8.07;;;7.00;;
8435;SDS011;4255;48.730;9.156;2023-11-22T07:09:19;7.90;;;7.10;;
8435;SDS011;4255;48.730;9.156;2023-11-22T07:11:45;7.80;;;7.00;;
8435;SDS011;4255;48.730;9.156;2023-11-22T07:14:11;7.00;;;6.10;;
8435;SDS011;4255;48.730;9.156;2023-11-22T07:16:36;9.50;;;7.13;;
8435;SDS011;4255;48.730;9.156;2023-11-22T07:19:02;10.60;;;6.67;;
8435;SDS011;4255;48.730;9.156;2023-11-22T07:21:31;8.33;;;6.43;;
8435;SDS011;4255;48.730;9.156;2023-11-22T07:23:57;6.35;;;5.85;;
8435;SDS011;4255;48.730;9.156;2023-11-22T07:26:26;8.63;;;6.32;;
8435;SDS011;4255;48.730;9.156;2023-11-22T07:28:55;6.32;;;5.72;;
8435;SDS011;4255;48.730;9.156;2023-11-22T07:31:21;7.20;;;5.33;;
8435;SDS011;4255;48.730;9.156;2023-11-22T07:33:47;11.48;;;6.45;;
8435;SDS011;4255;48.730;9.156;2023-11-22T07:36:13;5.80;;;4.87;;
8435;SDS011;4255;48.730;9.156;2023-11-22T07:38:42;6.55;;;5.57;;
8435;SDS011;4255;48.730;9.156;2023-11-22T07:41:11;6.28;;;5.50;;
8435;SDS011;4255;48.730;9.156;2023-11-22T07:43:36;5.83;;;5.17;;
8435;SDS011;4255;48.730;9.156;2023-11-22T07:46:06;6.03;;;5.20;;
8435;SDS011;4255;48.730;9.156;2023-11-22T07:48:37;8.50;;;5.75;;
8435;SDS011;4255;48.730;9.156;2023-11-22T07:51:07;6.05;;;5.45;;
8435;SDS011;4255;48.730;9.156;2023-11-22T07:53:33;8.05;;;5.28;;
8435;SDS011;4255;48.730;9.156;2023-11-22T07:56:02;5.75;;;5.25;;
8435;SDS011;4255;48.730;9.156;2023-11-22T07:58:32;7.25;;;6.40;;
8435;SDS011;4255;48.730;9.156;2023-11-22T08:00:58;8.20;;;6.40;;
8435;SDS011;4255;48.730;9.156;2023-11-22T08:03:24;6.28;;;5.03;;
8435;SDS011;4255;48.730;9.156;2023-11-22T08:05:51;7.20;;;6.20;;
8435;SDS011;4255;48.730;9.156;2023-11-22T08:08:19;5.63;;;5.05;;
8435;SDS011;4255;48.730;9.156;2023-11-22T08:10:45;8.70;;;6.88;;
8435;SDS011;4255;48.730;9.156;2023-11-22T08:13:12;7.78;;;5.63;;
8435;SDS011;4255;48.730;9.156;2023-11-22T08:15:38;6.70;;;5.17;;
8435;SDS011;4255;48.730;9.156;2023-11-22T08:18:04;6.87;;;6.17;;
8435;SDS011;4255;48.730;9.156;2023-11-22T08:20:30;7.25;;;5.43;;
8435;SDS011;4255;48.730;9.156;2023-11-22T08:22:56;5.57;;;4.80;;
8435;SDS011;4255;48.730;9.156;2023-11-22T08:25:22;10.27;;;5.90;;
8435;SDS011;4255;48.730;9.156;2023-11-22T08:27:48;7.47;;;6.10;;
8435;SDS011;4255;48.730;9.156;2023-11-22T08:30:14;7.05;;;5.20;;
8435;SDS011;4255;48.730;9.156;2023-11-22T08:32:43;6.25;;;5.35;;
8435;SDS011;4255;48.730;9.156;2023-11-22T08:35:13;6.47;;;4.57;;
8435;SDS011;4255;48.730;9.156;2023-11-22T08:37:40;6.00;;;5.50;;
8435;SDS011;4255;48.730;9.156;2023-11-22T08:40:09;7.22;;;5.00;;
8435;SDS011;4255;48.730;9.156;2023-11-22T08:42:39;10.27;;;6.65;;
8435;SDS011;4255;48.730;9.156;2023-11-22T08:45:06;6.25;;;5.65;;
8435;SDS011;4255;48.730;9.156;2023-11-22T08:47:33;5.95;;;5.35;;
8435;SDS011;4255;48.730;9.156;2023-11-22T08:49:59;5.80;;;5.10;;
8435;SDS011;4255;48.730;9.156;2023-11-22T08:52:25;7.10;;;5.70;;
8435;SDS011;4255;48.730;9.156;2023-11-22T08:54:50;5.53;;;4.67;;
8435;SDS011;4255;48.730;9.156;2023-11-22T08:57:17;8.57;;;6.40;;
8435;SDS011;4255;48.730;9.156;2023-11-22T08:59:43;5.93;;;5.22;;
8435;SDS011;4255;48.730;9.156;2023-11-22T09:02:08;7.17;;;6.20;;
8435;SDS011;4255;48.730;9.156;2023-11-22T09:04:37;5.70;;;5.10;;
8435;SDS011;4255;48.730;9.156;2023-11-22T09:07:03;5.40;;;4.63;;
8435;SDS011;4255;48.730;9.156;2023-11-22T09:09:30;6.38;;;5.53;;
8435;SDS011;4255;48.730;9.156;2023-11-22T09:11:57;7.40;;;6.35;;
8435;SDS011;4255;48.730;9.156;2023-11-22T09:14:23;14.30;;;7.38;;
8435;SDS011;4255;48.730;9.156;2023-11-22T09:16:49;10.27;;;7.20;;
8435;SDS011;4255;48.730;9.156;2023-11-22T09:19:20;11.75;;;6.80;;
8435;SDS011;4255;48.730;9.156;2023-11-22T09:21:49;6.95;;;6.25;;
8435;SDS011;4255;48.730;9.156;2023-11-22T09:24:15;7.57;;;6.30;;
8435;SDS011;4255;48.730;9.156;2023-11-22T09:26:41;9.03;;;5.27;;
8435;SDS011;4255;48.730;9.156;2023-11-22T09:29:07;6.80;;;6.10;;
8435;SDS011;4255;48.730;9.156;2023-11-22T09:34:01;7.22;;;5.40;;
8435;SDS011;4255;48.730;9.156;2023-11-22T09:36:28;11.98;;;6.68;;
8435;SDS011;4255;48.730;9.156;2023-11-22T09:38:57;9.13;;;7.13;;
8435;SDS011;4255;48.730;9.156;2023-11-22T09:41:23;7.55;;;6.75;;
8435;SDS011;4255;48.730;9.156;2023-11-22T09:43:51;7.55;;;5.75;;
8435;SDS011;4255;48.730;9.156;2023-11-22T09:46:18;8.82;;;6.60;;
8435;SDS011;4255;48.730;9.156;2023-11-22T09:48:47;11.75;;;7.38;;
8435;SDS011;4255;48.730;9.156;2023-11-22T09:51:23;8.60;;;6.72;;
8435;SDS011;4255;48.730;9.156;2023-11-22T09:53:54;9.50;;;6.75;;
8435;SDS011;4255;48.730;9.156;2023-11-22T09:56:22;9.15;;;6.45;;
8435;SDS011;4255;48.730;9.156;2023-11-22T09:58:51;7.63;;;6.30;;
8435;SDS011;4255;48.730;9.156;2023-11-22T10:01:20;10.73;;;6.90;;
8435;SDS011;4255;48.730;9.156;2023-11-22T10:03:47;7.13;;;6.00;;
8435;SDS011;4255;48.730;9.156;2023-11-22T10:06:13;12.13;;;8.57;;
8435;SDS011;4255;48.730;9.156;2023-11-22T10:08:42;9.45;;;7.22;;
8435;SDS011;4255;48.730;9.156;2023-11-22T10:11:11;7.82;;;6.18;;
8435;SDS011;4255;48.730;9.156;2023-11-22T10:13:49;10.20;;;7.68;;
8435;SDS011;4255;48.730;9.156;2023-11-22T10:16:16;10.40;;;6.25;;
8435;SDS011;4255;48.730;9.156;2023-11-22T10:18:43;9.40;;;6.80;;
8435;SDS011;4255;48.730;9.156;2023-11-22T10:21:23;10.77;;;7.53;;
8435;SDS011;4255;48.730;9.156;2023-11-22T10:23:53;11.57;;;7.88;;
8435;SDS011;4255;48.730;9.156;2023-11-22T10:26:21;9.90;;;6.90;;
8435;SDS011;4255;48.730;9.156;2023-11-22T10:28:50;10.90;;;7.55;;
8435;SDS011;4255;48.730;9.156;2023-11-22T10:31:19;8.70;;;7.28;;
8435;SDS011;4255;48.730;9.156;2023-11-22T10:33:49;15.20;;;7.15;;
8435;SDS011;4255;48.730;9.156;2023-11-22T10:36:15;8.50;;;7.38;;
8435;SDS011;4255;48.730;9.156;2023-11-22T10:38:45;9.75;;;7.80;;
8435;SDS011;4255;48.730;9.156;2023-11-22T10:41:12;12.30;;;7.85;;
8435;SDS011;4255;48.730;9.156;2023-11-22T10:43:38;12.75;;;8.73;;
8435;SDS011;4255;48.730;9.156;2023-11-22T10:46:06;9.85;;;7.47;;
8435;SDS011;4255;48.730;9.156;2023-11-22T10:48:35;10.80;;;8.00;;
8435;SDS011;4255;48.730;9.156;2023-11-22T10:51:01;11.43;;;8.43;;
8435;SDS011;4255;48.730;9.156;2023-11-22T10:53:38;8.80;;;7.72;;
8435;SDS011;4255;48.730;9.156;2023-11-22T10:58:45;9.68;;;7.50;;
8435;SDS011;4255;48.730;9.156;2023-11-22T11:01:16;10.43;;;8.20;;
8435;SDS011;4255;48.730;9.156;2023-11-22T11:03:45;10.60;;;8.10;;
8435;SDS011;4255;48.730;9.156;2023-11-22T11:06:19;9.93;;;6.70;;
8435;SDS011;4255;48.730;9.156;2023-11-22T11:08:52;9.27;;;7.15;;
8435;SDS011;4255;48.730;9.156;2023-11-22T11:11:19;10.65;;;7.75;;
8435;SDS011;4255;48.730;9.156;2023-11-22T11:13:46;9.23;;;8.32;;
8435;SDS011;4255;48.730;9.156;2023-11-22T11:16:13;11.68;;;7.97;;
8435;SDS011;4255;48.730;9.156;2023-11-22T11:18:39;14.10;;;9.03;;
8435;SDS011;4255;48.730;9.156;2023-11-22T11:21:08;10.13;;;7.78;;
8435;SDS011;4255;48.730;9.156;2023-11-22T11:23:38;11.30;;;7.80;;
8435;SDS011;4255;48.730;9.156;2023-11-22T11:26:18;12.52;;;8.25;;
8435;SDS011;4255;48.730;9.156;2023-11-22T11:28:46;39.92;;;10.65;;
8435;SDS011;4255;48.730;9.156;2023-11-22T11:31:14;13.00;;;9.10;;
8435;SDS011;4255;48.730;9.156;2023-11-22T11:36:22;10.68;;;8.18;;
8435;SDS011;4255;48.730;9.156;2023-11-22T11:38:51;11.20;;;8.48;;
8435;SDS011;4255;48.730;9.156;2023-11-22T11:41:18;12.27;;;9.23;;
8435;SDS011;4255;48.730;9.156;2023-11-22T11:43:45;10.70;;;7.87;;
8435;SDS011;4255;48.730;9.156;2023-11-22T11:46:12;14.93;;;8.45;;
8435;SDS011;4255;48.730;9.156;2023-11-22T11:48:42;8.60;;;7.05;;
8435;SDS011;4255;48.730;9.156;2023-11-22T11:51:15;10.80;;;8.32;;
8435;SDS011;4255;48.730;9.156;2023-11-22T11:53:42;9.35;;;7.47;;
8435;SDS011;4255;48.730;9.156;2023-11-22T11:56:09;10.27;;;6.60;;
8435;SDS011;4255;48.730;9.156;2023-11-22T11:58:35;10.15;;;7.43;;
8435;SDS011;4255;48.730;9.156;2023-11-22T12:01:03;16.33;;;7.90;;
8435;SDS011;4255;48.730;9.156;2023-11-22T12:03:32;12.65;;;8.10;;
8435;SDS011;4255;48.730;9.156;2023-11-22T12:05:58;12.55;;;8.60;;
8435;SDS011;4255;48.730;9.156;2023-11-22T12:08:24;10.60;;;7.93;;
8435;SDS011;4255;48.730;9.156;2023-11-22T12:10:50;15.30;;;9.27;;
8435;SDS011;4255;48.730;9.156;2023-11-22T12:13:19;19.13;;;8.87;;
8435;SDS011;4255;48.730;9.156;2023-11-22T12:15:46;12.35;;;9.13;;
8435;SDS011;4255;48.730;9.156;2023-11-22T12:18:12;13.30;;;9.50;;
8435;SDS011;4255;48.730;9.156;2023-11-22T12:20:38;12.00;;;8.67;;
8435;SDS011;4255;48.730;9.156;2023-11-22T12:23:04;11.10;;;8.43;;
8435;SDS011;4255;48.730;9.156;2023-11-22T12:25:31;12.75;;;9.07;;
8435;SDS011;4255;48.730;9.156;2023-11-22T12:27:58;12.70;;;8.50;;
8435;SDS011;4255;48.730;9.156;2023-11-22T12:30:33;13.37;;;8.13;;
8435;SDS011;4255;48.730;9.156;2023-11-22T12:33:00;7.75;;;6.97;;
8435;SDS011;4255;48.730;9.156;2023-11-22T12:35:27;14.43;;;7.90;;
8435;SDS011;4255;48.730;9.156;2023-11-22T12:37:54;11.88;;;8.48;;
8435;SDS011;4255;48.730;9.156;2023-11-22T12:40:20;16.90;;;8.20;;
8435;SDS011;4255;48.730;9.156;2023-11-22T12:42:52;11.05;;;8.18;;
8435;SDS011;4255;48.730;9.156;2023-11-22T12:45:22;15.43;;;8.70;;
8435;SDS011;4255;48.730;9.156;2023-11-22T12:47:52;10.65;;;7.75;;
8435;SDS011;4255;48.730;9.156;2023-11-22T12:50:37;16.17;;;9.18;;
8435;SDS011;4255;48.730;9.156;2023-11-22T12:53:13;12.60;;;8.63;;
8435;SDS011;4255;48.730;9.156;2023-11-22T12:55:46;12.75;;;8.95;;
8435;SDS011;4255;48.730;9.156;2023-11-22T12:58:16;14.75;;;8.95;;
8435;SDS011;4255;48.730;9.156;2023-11-22T13:00:45;9.45;;;8.43;;
8435;SDS011;4255;48.730;9.156;2023-11-22T13:03:13;14.05;;;9.50;;
8435;SDS011;4255;48.730;9.156;2023-11-22T13:05:39;12.80;;;8.90;;
8435;SDS011;4255;48.730;9.156;2023-11-22T13:08:07;11.50;;;8.13;;
8435;SDS011;4255;48.730;9.156;2023-11-22T13:10:36;11.20;;;9.10;;
8435;SDS011;4255;48.730;9.156;2023-11-22T13:13:01;13.50;;;9.90;;
8435;SDS011;4255;48.730;9.156;2023-11-22T13:15:27;12.00;;;8.10;;
8435;SDS011;4255;48.730;9.156;2023-11-22T13:17:53;11.85;;;7.93;;
8435;SDS011;4255;48.730;9.156;2023-11-22T13:20:23;18.55;;;7.72;;
8435;SDS011;4255;48.730;9.156;2023-11-22T13:22:50;10.40;;;7.78;;
8435;SDS011;4255;48.730;9.156;2023-11-22T13:25:20;14.50;;;9.00;;
8435;SDS011;4255;48.730;9.156;2023-11-22T13:27:47;20.50;;;9.20;;
8435;SDS011;4255;48.730;9.156;2023-11-22T13:30:13;14.07;;;8.75;;
8435;SDS011;4255;48.730;9.156;2023-11-22T13:32:40;14.02;;;9.20;;
8435;SDS011;4255;48.730;9.156;2023-11-22T13:35:08;16.70;;;10.73;;
8435;SDS011;4255;48.730;9.156;2023-11-22T13:37:40;12.13;;;8.75;;
8435;SDS011;4255;48.730;9.156;2023-11-22T13:40:08;9.40;;;7.75;;
8435;SDS011;4255;48.730;9.156;2023-11-22T13:42:41;13.60;;;8.38;;
8435;SDS011;4255;48.730;9.156;2023-11-22T13:48:16;14.85;;;9.68;;
8435;SDS011;4255;48.730;9.156;2023-11-22T13:50:41;13.30;;;9.87;;
8435;SDS011;4255;48.730;9.156;2023-11-22T13:53:07;16.37;;;9.00;;
8435;SDS011;4255;48.730;9.156;2023-11-22T13:55:35;14.63;;;8.55;;
8435;SDS011;4255;48.730;9.156;2023-11-22T13:58:02;12.52;;;8.90;;
8435;SDS011;4255;48.730;9.156;2023-11-22T14:00:30;12.27;;;8.60;;
8435;SDS011;4255;48.730;9.156;2023-11-22T14:02:59;12.77;;;9.70;;
8435;SDS011;4255;48.730;9.156;2023-11-22T14:05:31;13.10;;;9.73;;
8435;SDS011;4255;48.730;9.156;2023-11-22T14:07:59;11.80;;;8.90;;
8435;SDS011;4255;48.730;9.156;2023-11-22T14:10:25;14.77;;;9.88;;
8435;SDS011;4255;48.730;9.156;2023-11-22T14:12:51;19.08;;;9.93;;
8435;SDS011;4255;48.730;9.156;2023-11-22T14:15:17;10.50;;;7.67;;
8435;SDS011;4255;48.730;9.156;2023-11-22T14:17:44;14.30;;;9.75;;
8435;SDS011;4255;48.730;9.156;2023-11-22T14:20:14;16.65;;;9.43;;
8435;SDS011;4255;48.730;9.156;2023-11-22T14:22:40;13.88;;;9.60;;
8435;SDS011;4255;48.730;9.156;2023-11-22T14:25:08;14.15;;;8.85;;
8435;SDS011;4255;48.730;9.156;2023-11-22T14:27:39;12.50;;;9.52;;
8435;SDS011;4255;48.730;9.156;2023-11-22T14:30:12;11.60;;;9.82;;
8435;SDS011;4255;48.730;9.156;2023-11-22T14:32:42;14.25;;;10.35;;
8435;SDS011;4255;48.730;9.156;2023-11-22T14:35:09;16.80;;;9.65;;
8435;SDS011;4255;48.730;9.156;2023-11-22T14:37:35;10.15;;;8.57;;
8435;SDS011;4255;48.730;9.156;2023-11-22T14:40:04;14.90;;;9.32;;
8435;SDS011;4255;48.730;9.156;2023-11-22T14:42:39;13.38;;;8.88;;
8435;SDS011;4255;48.730;9.156;2023-11-22T14:45:06;10.63;;;7.70;;
8435;SDS011;4255;48.730;9.156;2023-11-22T14:47:32;11.20;;;9.18;;
8435;SDS011;4255;48.730;9.156;2023-11-22T14:50:01;11.77;;;9.35;;
8435;SDS011;4255;48.730;9.156;2023-11-22T14:52:29;11.20;;;9.20;;
8435;SDS011;4255;48.730;9.156;2023-11-22T14:54:55;14.90;;;9.77;;
8435;SDS011;4255;48.730;9.156;2023-11-22T14:57:22;11.25;;;8.48;;
8435;SDS011;4255;48.730;9.156;2023-11-22T14:59:47;11.77;;;8.80;;
8435;SDS011;4255;48.730;9.156;2023-11-22T15:02:14;12.15;;;8.90;;
8435;SDS011;4255;48.730;9.156;2023-11-22T15:04:40;12.40;;;8.18;;
8435;SDS011;4255;48.730;9.156;2023-11-22T15:07:07;12.65;;;10.32;;
8435;SDS011;4255;48.730;9.156;2023-11-22T15:09:32;14.37;;;9.50;;
8435;SDS011;4255;48.730;9.156;2023-11-22T15:11:59;14.02;;;9.45;;
8435;SDS011;4255;48.730;9.156;2023-11-22T15:14:28;13.80;;;9.32;;
8435;SDS011;4255;48.730;9.156;2023-11-22T15:16:57;10.35;;;8.25;;